Terminal Aerodrome Forecast
Issued by NWS

Current Version | Previous Version | Graphics & Text | Print | Product List | Glossary On
Versions: 1 2 3 4 5 6 7 8 9 10 11 12 13 14 15 16 17 18 19 20
000
FTUS41 KILN 201914 AAA
TAFLCK
TAF AMD
KLCK 201914Z 2019/2118 23019G29KT P6SM SCT050 BKN150
     FM202100 23017G26KT P6SM VCTS FEW050CB BKN100
      TEMPO 2021/2024 4SM -TSRA OVC025CB
     FM210000 23014G20KT 5SM -SHRA BKN050
      TEMPO 2100/2103 2SM TSRA OVC025CB
     FM210300 22012KT 5SM -SHRA VCTS OVC050CB
     FM210500 24012KT P6SM VCSH BKN025
     FM210700 26012KT P6SM BKN018
     FM211400 29008KT P6SM BKN040=

USA.gov is the U.S. government's official web portal to all federal, state and local government web resources and services.